Glasgow, Iowa
Current Conditions -  °F | °C
As of 4:55 PM on Tuesday 27 Jan 2015 (Local Time) from KFFL Reporting Station
Overcast Overcast  
Wind Chill: 26°   Ceiling: 1700
Heat Index: 34°   Visibility: 10mi
Dew Point: 27°   Wind: 10mph
Humidity: 75%   Direction: 100°E
Pressure: 30.2"   Gusts: NA
Location:  40.9879°N, 91.8924°W
Report Text: KFFL 272255Z AUTO 10009KT 10SM OVC017 01/M03 A3020 RMK AO2
Loading
Personal Weather Stations






























Interactive Weather Map New forecast layout! Learn more

10-Day Weather Forecast

Advertisements
Track Severe Weather on mobile